createdAt,value
2022-09-12T00:04:07.257Z,98825.38
2022-09-12T00:14:09.906Z,98819.91
2022-09-12T00:24:11.770Z,98814.75
2022-09-12T00:34:13.625Z,98812.19
2022-09-12T00:44:15.229Z,98806.13
2022-09-12T00:54:19.422Z,98801.53
2022-09-12T01:04:23.726Z,98810.50
2022-09-12T01:14:25.768Z,98807.28
2022-09-12T01:24:46.012Z,98817.44
2022-09-12T01:34:59.184Z,98802.06
2022-09-12T01:45:18.763Z,98810.88
2022-09-12T01:55:23.646Z,98809.91
2022-09-12T02:05:51.516Z,98807.47
2022-09-12T02:15:55.745Z,98800.75
2022-09-12T02:26:01.398Z,98799.19
2022-09-12T02:36:32.972Z,98803.59
2022-09-12T02:46:55.871Z,98792.88
2022-09-12T02:56:57.358Z,98810.91
2022-09-12T03:07:25.291Z,98805.88
2022-09-12T03:17:26.783Z,98816.09
2022-09-12T03:27:30.195Z,98828.72
2022-09-12T03:37:31.773Z,98818.88
2022-09-12T03:47:33.321Z,98826.34
2022-09-12T03:57:34.840Z,98833.66
2022-09-12T04:07:36.384Z,98834.34
2022-09-12T04:17:37.868Z,98842.75
2022-09-12T04:27:39.655Z,98840.63
2022-09-12T04:37:41.220Z,98848.41
2022-09-12T04:47:42.767Z,98855.03
2022-09-12T04:57:44.815Z,98865.09
2022-09-12T05:07:46.512Z,98862.19
2022-09-12T05:17:48.029Z,98867.00
2022-09-12T05:27:53.510Z,98865.59
2022-09-12T05:37:55.017Z,98856.38
2022-09-12T05:47:56.510Z,98854.28
2022-09-12T05:57:58.062Z,98854.56
2022-09-12T06:07:59.612Z,98845.75
2022-09-12T06:18:01.159Z,98855.28
2022-09-12T06:28:03.054Z,98847.97
2022-09-12T06:38:05.472Z,98852.25
2022-09-12T06:48:07.107Z,98857.97
2022-09-12T06:58:08.760Z,98867.53
2022-09-12T07:08:10.266Z,98863.81
2022-09-12T07:18:11.856Z,98869.88
2022-09-12T07:28:13.462Z,98863.91
2022-09-12T07:38:15.239Z,98863.34
2022-09-12T07:48:17.998Z,98869.06
2022-09-12T07:58:20.501Z,98855.75
2022-09-12T08:08:23.540Z,98860.91
2022-09-12T08:18:26.396Z,98864.91
2022-09-12T08:28:28.926Z,98851.13
2022-09-12T08:38:30.889Z,98844.41
2022-09-12T08:48:32.763Z,98841.31
2022-09-12T08:58:38.290Z,98854.06
2022-09-12T09:08:52.014Z,98847.19
2022-09-12T09:18:55.797Z,98870.19
2022-09-12T09:28:59.421Z,98879.56
2022-09-12T09:39:04.116Z,98882.31
2022-09-12T09:49:07.053Z,98884.41
2022-09-12T09:59:10.511Z,98891.31
2022-09-12T10:09:15.023Z,98898.47
2022-09-12T10:19:24.733Z,98897.47
2022-09-12T10:29:32.325Z,98893.31
2022-09-12T10:39:35.978Z,98889.88
2022-09-12T10:49:40.393Z,98901.31
2022-09-12T11:00:00.773Z,98898.91
2022-09-12T11:10:21.345Z,98895.41
2022-09-12T11:20:41.325Z,98899.44
2022-09-12T11:30:52.552Z,98901.56
2022-09-12T11:41:20.528Z,98908.75
2022-09-12T11:51:27.674Z,98902.00
2022-09-12T12:01:40.423Z,98905.41
2022-09-12T12:11:47.854Z,98905.38
2022-09-12T12:21:50.659Z,98914.13
2022-09-12T12:32:04.372Z,98911.94
2022-09-12T12:42:06.302Z,98924.47
2022-09-12T12:52:16.898Z,98925.00
2022-09-12T13:02:21.838Z,98929.19
2022-09-12T13:12:52.995Z,98926.44
2022-09-12T13:22:54.606Z,98929.88
2022-09-12T13:32:58.349Z,98920.28
2022-09-12T13:43:13.159Z,98940.13
2022-09-12T13:53:17.186Z,98939.47
2022-09-12T14:03:48.343Z,98938.66
2022-09-12T14:13:53.408Z,98935.31
2022-09-12T14:23:55.495Z,98938.00
2022-09-12T14:34:11.756Z,98931.34
2022-09-12T14:44:27.327Z,98941.13
2022-09-12T14:54:29.814Z,98934.19
2022-09-12T15:04:38.290Z,98943.09
2022-09-12T15:14:39.923Z,98953.47
2022-09-12T15:24:41.654Z,98950.97
2022-09-12T15:34:45.607Z,98946.31
2022-09-12T15:44:47.222Z,98950.91
2022-09-12T15:54:49.091Z,98952.38
2022-09-12T16:04:54.730Z,98952.44
2022-09-12T16:14:59.254Z,98965.22
2022-09-12T16:25:01.399Z,98961.69
2022-09-12T16:35:03.042Z,98970.97
2022-09-12T16:45:04.671Z,98975.25
2022-09-12T16:55:06.429Z,98979.16
2022-09-12T17:05:08.567Z,98977.56
2022-09-12T17:15:10.319Z,98980.63
2022-09-12T17:25:11.966Z,98979.16
2022-09-12T17:35:14.207Z,98984.84
2022-09-12T17:45:18.398Z,98985.53
2022-09-12T17:55:21.132Z,98975.44
2022-09-12T18:05:23.814Z,98978.53
2022-09-12T18:15:26.164Z,98973.03
2022-09-12T18:25:27.830Z,98967.19
2022-09-12T18:35:29.665Z,98978.22
2022-09-12T18:45:31.821Z,98982.31
2022-09-12T18:55:33.497Z,98977.09
2022-09-12T19:05:35.587Z,98978.38
2022-09-12T19:15:39.717Z,98979.69
2022-09-12T19:25:41.740Z,98974.16
2022-09-12T19:35:43.499Z,98964.25
2022-09-12T19:45:48.471Z,98963.78
2022-09-12T19:55:50.029Z,98961.00
2022-09-12T20:05:51.650Z,98951.75
2022-09-12T20:15:53.552Z,98957.94
2022-09-12T20:25:55.156Z,98957.91
2022-09-12T20:36:13.933Z,98955.97
2022-09-12T20:46:18.634Z,98954.34
2022-09-12T20:56:23.817Z,98950.13
2022-09-12T21:06:26.443Z,98956.47
2022-09-12T21:16:28.715Z,98952.72
2022-09-12T21:26:30.659Z,98947.34
2022-09-12T21:36:32.430Z,98944.28
2022-09-12T21:46:34.275Z,98938.91
2022-09-12T21:56:35.888Z,98929.63
2022-09-12T22:06:37.890Z,98940.03
2022-09-12T22:16:40.596Z,98935.50
2022-09-12T22:26:43.423Z,98930.78
2022-09-12T22:36:47.876Z,98931.09
2022-09-12T22:46:49.633Z,98936.41
2022-09-12T22:56:51.278Z,98933.97
2022-09-12T23:06:53.117Z,98921.94
2022-09-12T23:16:54.850Z,98927.09
2022-09-12T23:26:56.463Z,98923.22
2022-09-12T23:36:58.064Z,98918.66
2022-09-12T23:46:59.669Z,98910.22
2022-09-12T23:57:01.291Z,98908.09
